ENVAENKB

Guest
Details From ENVA - Vaernes
To ENKB - KVERNBERGET
Flight Number -
Tags generated
Created
Modified
Stats Distance 86 nm / 159 km
Max Altitude 4,600 ft / 1,402 m
Waypoints 3
Social Downloads 1
Likes 0
Share

Download

Looking for another format? Having issues loading an existing format? Contact us
Advertisement - Login to hide

Notes

Basic altitude profile: - Ascent Rate: 2500ft/min - Ascent Speed: 250kts - Cruise Altitude: 35000ft - Cruise Speed: 420kts - Descent Rate: 1500ft/min - Descent Speed: 250kts Options: - Use NATs: yes - Use PACOTS: yes - Use low airways: yes - Use high airways: yes

Route

ENVA TURSI ENKB

ID Type Via Altitude (ft/m) Position (lat/lon) Dist (leg/tot) Name
O ENVA APT - 0 / 0 63.45760 / 10.91798 - / 0 nm Vaernes
TURSI FIX - 4,600 / 1,402 63.22750 / 8.58139 64 / 64 nm
O ENKB APT - 0 / 0 63.11187 / 7.82453 21 / 86 nm KVERNBERGET

Altitude Profile

Advertisement - Login to hide

ENVA

Details ICAO ENVA (TRD)
Name Trondheim Vaernes
Region Norway
Timezone Europe/Oslo (UTC+2.0)
Stats Elevation 56 ft / 17 m (AMSL)
Location 63.457500° 10.924200°
Runways 1
Magnetic Variation 4.149° E

METAR

ENVA 110250Z 06004KT 020V130 CAVOK 13/04 Q1002 RMK WIND 670FT 20008KT

Decode

TAF

TAF ENVA 102300Z 1100/1124 11005KT 9999 FEW050 SCT080 TEMPO 1100/1102 16015G25KT

Decode

Departure Runways

ID Width Length Bearing (true/mag) Surface Threshold Overrun Markings Lighting
09 148 ft / 45 m 9,744 ft / 2,970 m 90.18° / 86.04° ASPHALT 830 ft / 253 m 0 ft / 0 m PREC-APP CENTERLINE EDGE THRESHOLD CALVERT REIL-OMNI
27 148 ft / 45 m 9,744 ft / 2,970 m 270.24° / 266.09° ASPHALT 745 ft / 227 m 0 ft / 0 m PREC-APP CENTERLINE EDGE THRESHOLD CALVERT REIL-OMNI

ENKB

Details ICAO ENKB (KSU)
Name Kristiansund Kvernberget
Region Norway
Timezone Europe/Oslo (UTC+2.0)
Stats Elevation 204 ft / 62 m (AMSL)
Location 63.112500° 7.829240°
Runways 1
Magnetic Variation 2.645° E

METAR

ENKB 110250Z AUTO 00000KT 9999 SCT078/// 09/06 Q1001 RMK WIND 745FT 25006KT

Decode

TAF

Not found

Destination Runways

ID Width Length Bearing (true/mag) Surface Threshold Overrun Markings Lighting
07 151 ft / 46 m 7,317 ft / 2,230 m 71.36° / 68.72° ASPHALT 0 ft / 0 m 0 ft / 0 m PREC-APP CENTERLINE EDGE THRESHOLD ALSF-II
25 151 ft / 46 m 7,317 ft / 2,230 m 251.40° / 248.76° ASPHALT 0 ft / 0 m 0 ft / 0 m PREC-APP CENTERLINE EDGE THRESHOLD ALSF-II

Approach Navaids

Runway Type Ident Frequency Range Bearing (true/mag) Slope Elevation
07 MM MM - - 71.41° / 68.76 ° - 204 ft / 62 m (AMSL)
07 LOC-ILS KB 110.10 MHz 18 nm / 33 km 71.38° / 68.74 ° - 204 ft / 62 m (AMSL)
07 GS KB 110.10 MHz 10 nm / 19 km 71.38° / 68.74 ° 3.00° 204 ft / 62 m (AMSL)
07 OM OM - - 71.41° / 68.76 ° - 204 ft / 62 m (AMSL)

Popular Alternatives